createdAt,value
2023-02-21T00:00:00.291Z,16.25
2023-02-21T00:03:22.512Z,16.33
2023-02-21T00:06:44.228Z,16.32
2023-02-21T00:10:05.365Z,16.24
2023-02-21T00:13:26.535Z,16.15
2023-02-21T00:16:49.413Z,16.26
2023-02-21T00:20:12.244Z,16.15
2023-02-21T00:23:33.233Z,16.16
2023-02-21T00:26:53.778Z,16.14
2023-02-21T00:30:14.513Z,16.30
2023-02-21T00:33:36.233Z,16.27
2023-02-21T00:36:58.110Z,16.30
2023-02-21T00:40:19.179Z,16.20
2023-02-21T00:43:48.068Z,16.15
2023-02-21T00:47:08.893Z,16.20
2023-02-21T00:50:29.870Z,16.19
2023-02-21T00:53:50.740Z,16.07
2023-02-21T00:57:11.683Z,15.93
2023-02-21T01:00:38.685Z,16.08
2023-02-21T01:03:59.531Z,15.96
2023-02-21T01:07:20.185Z,15.99
2023-02-21T01:10:41.053Z,15.91
2023-02-21T01:14:01.619Z,16.00
2023-02-21T01:17:22.863Z,16.10
2023-02-21T01:20:44.245Z,16.14
2023-02-21T01:24:06.156Z,16.06
2023-02-21T01:27:27.255Z,16.10
2023-02-21T01:30:48.076Z,16.12
2023-02-21T01:34:08.783Z,16.22
2023-02-21T01:37:29.817Z,16.16
2023-02-21T01:40:52.984Z,16.10
2023-02-21T01:44:23.974Z,16.06
2023-02-21T01:47:45.557Z,16.24
2023-02-21T01:51:07.497Z,16.27
2023-02-21T01:54:30.866Z,16.25
2023-02-21T01:57:52.198Z,16.24
2023-02-21T02:01:13.404Z,16.31
2023-02-21T02:04:34.167Z,16.36
2023-02-21T02:07:55.943Z,16.34
2023-02-21T02:11:42.400Z,16.31
2023-02-21T02:15:09.189Z,16.35
2023-02-21T02:18:23.279Z,16.36
2023-02-21T02:22:02.481Z,16.33
2023-02-21T02:25:10.292Z,16.31
2023-02-21T02:28:15.480Z,16.32
2023-02-21T02:31:37.434Z,16.24
2023-02-21T02:34:46.306Z,16.28
2023-02-21T02:38:04.348Z,16.34
2023-02-21T02:41:24.365Z,16.42
2023-02-21T02:44:39.468Z,16.35
2023-02-21T02:47:44.629Z,16.51
2023-02-21T02:50:49.161Z,16.49
2023-02-21T02:53:51.236Z,16.57
2023-02-21T02:56:53.503Z,16.48
2023-02-21T02:59:55.768Z,16.47
2023-02-21T03:03:16.347Z,16.43
2023-02-21T03:06:42.982Z,16.44
2023-02-21T03:09:57.700Z,16.34
2023-02-21T03:13:18.495Z,16.30
2023-02-21T03:16:28.973Z,16.28
2023-02-21T03:19:38.806Z,16.36
2023-02-21T03:22:43.634Z,16.36
2023-02-21T03:25:47.558Z,16.36
2023-02-21T03:28:51.016Z,16.35
2023-02-21T03:32:12.369Z,16.42
2023-02-21T03:35:15.432Z,16.58
2023-02-21T03:38:18.121Z,16.59
2023-02-21T03:41:20.449Z,16.59
2023-02-21T03:44:22.909Z,16.50
2023-02-21T03:47:26.382Z,16.52
2023-02-21T03:50:28.495Z,16.53
2023-02-21T03:53:30.995Z,16.50
2023-02-21T03:56:41.542Z,16.48
2023-02-21T04:00:00.528Z,16.43
2023-02-21T04:03:03.045Z,16.54
2023-02-21T04:06:12.137Z,16.62
2023-02-21T04:09:14.359Z,16.57
2023-02-21T04:12:17.929Z,16.53
2023-02-21T04:15:20.119Z,16.58
2023-02-21T04:18:22.382Z,16.66
2023-02-21T04:21:26.914Z,16.63
2023-02-21T04:24:31.225Z,16.63
2023-02-21T04:27:34.880Z,16.63
2023-02-21T04:30:37.411Z,16.58
2023-02-21T04:33:40.281Z,16.62
2023-02-21T04:36:44.148Z,16.63
2023-02-21T04:39:46.147Z,16.66
2023-02-21T04:42:50.789Z,16.51
2023-02-21T04:45:53.443Z,16.44
2023-02-21T04:48:55.850Z,16.33
2023-02-21T04:51:58.005Z,16.38
2023-02-21T04:55:00.159Z,16.37
2023-02-21T04:58:02.191Z,16.31
2023-02-21T05:01:04.525Z,16.31
2023-02-21T05:04:07.469Z,16.35
2023-02-21T05:07:09.707Z,16.48
2023-02-21T05:10:11.939Z,16.37
2023-02-21T05:13:15.045Z,16.38
2023-02-21T05:16:19.390Z,16.42
2023-02-21T05:19:28.374Z,16.44
2023-02-21T05:22:30.405Z,16.49
2023-02-21T05:25:32.777Z,16.52
2023-02-21T05:28:35.512Z,16.34
2023-02-21T05:31:37.811Z,16.26
2023-02-21T05:34:44.461Z,16.54
2023-02-21T05:37:46.571Z,16.77
2023-02-21T05:40:49.132Z,16.76
2023-02-21T05:43:51.325Z,17.35
2023-02-21T05:46:53.452Z,17.48
2023-02-21T05:49:55.547Z,17.52
2023-02-21T05:52:58.898Z,17.82
2023-02-21T05:56:00.888Z,18.03
2023-02-21T05:59:03.082Z,18.10
2023-02-21T06:02:05.152Z,18.21
2023-02-21T06:05:07.707Z,18.25
2023-02-21T06:08:11.892Z,18.45
2023-02-21T06:11:22.722Z,18.44
2023-02-21T06:14:25.782Z,18.31
2023-02-21T06:17:27.979Z,18.38
2023-02-21T06:20:30.080Z,18.51
2023-02-21T06:23:32.112Z,18.66
2023-02-21T06:26:35.047Z,18.66
2023-02-21T06:29:37.158Z,18.70
2023-02-21T06:32:39.379Z,18.82
2023-02-21T06:35:41.494Z,18.71
2023-02-21T06:38:46.696Z,18.72
2023-02-21T06:41:50.762Z,18.79
2023-02-21T06:44:52.815Z,19.21
2023-02-21T06:47:55.035Z,19.69
2023-02-21T06:50:57.416Z,19.84
2023-02-21T06:54:00.960Z,19.84
2023-02-21T06:57:03.315Z,19.94
2023-02-21T07:00:06.581Z,19.92
2023-02-21T07:03:08.726Z,19.97
2023-02-21T07:06:10.836Z,19.96
2023-02-21T07:09:13.526Z,19.80
2023-02-21T07:12:15.549Z,19.58
2023-02-21T07:15:18.639Z,19.27
2023-02-21T07:18:20.824Z,19.05
2023-02-21T07:21:23.428Z,18.92
2023-02-21T07:24:25.721Z,18.76
2023-02-21T07:27:27.845Z,18.59
2023-02-21T07:30:29.972Z,18.53
2023-02-21T07:33:32.185Z,18.50
2023-02-21T07:36:34.261Z,18.48
2023-02-21T07:39:36.646Z,18.50
2023-02-21T07:42:43.822Z,18.60
2023-02-21T07:45:46.436Z,18.57
2023-02-21T07:48:48.791Z,18.82
2023-02-21T07:51:51.184Z,19.15
2023-02-21T07:54:53.278Z,19.41
2023-02-21T07:57:55.306Z,19.50
2023-02-21T08:00:57.962Z,19.30
2023-02-21T08:04:00.070Z,19.17
2023-02-21T08:07:03.487Z,19.02
2023-02-21T08:10:06.434Z,19.04
2023-02-21T08:13:08.550Z,19.04
2023-02-21T08:16:10.914Z,19.07
2023-02-21T08:19:13.050Z,19.04
2023-02-21T08:22:15.845Z,19.04
2023-02-21T08:25:18.118Z,18.83
2023-02-21T08:28:20.117Z,18.81
2023-02-21T08:31:31.533Z,18.76
2023-02-21T08:34:33.668Z,18.66
2023-02-21T08:37:37.504Z,18.72
2023-02-21T08:40:39.616Z,18.78
2023-02-21T08:43:41.805Z,18.75
2023-02-21T08:46:44.972Z,18.84
2023-02-21T08:49:48.161Z,18.87
2023-02-21T08:52:50.496Z,19.04
2023-02-21T08:55:52.465Z,19.06
2023-02-21T08:58:55.175Z,19.11
2023-02-21T09:01:57.260Z,19.13
2023-02-21T09:05:00.007Z,19.13
2023-02-21T09:08:02.237Z,19.10
2023-02-21T09:11:04.895Z,19.09
2023-02-21T09:14:07.011Z,18.96
2023-02-21T09:17:12.339Z,18.95
2023-02-21T09:20:19.461Z,18.97
2023-02-21T09:23:22.028Z,18.72
2023-02-21T09:26:25.215Z,18.98
2023-02-21T09:29:31.664Z,18.99
2023-02-21T09:32:40.618Z,19.02
2023-02-21T09:35:42.767Z,19.07
2023-02-21T09:38:44.736Z,19.11
2023-02-21T09:41:48.157Z,19.07
2023-02-21T09:44:50.781Z,19.07
2023-02-21T09:47:56.457Z,19.05
2023-02-21T09:51:02.902Z,19.03
2023-02-21T09:54:05.127Z,18.99
2023-02-21T09:57:12.707Z,18.92
2023-02-21T10:00:21.177Z,18.70
2023-02-21T10:03:38.505Z,18.79
2023-02-21T10:07:09.891Z,18.90
2023-02-21T10:10:29.373Z,18.97
2023-02-21T10:13:41.440Z,19.13
2023-02-21T10:16:47.105Z,19.34
2023-02-21T10:19:56.133Z,19.40
2023-02-21T10:23:01.009Z,19.51
2023-02-21T10:26:11.260Z,19.72
2023-02-21T10:29:26.110Z,19.81
2023-02-21T10:32:29.630Z,19.81
2023-02-21T10:35:37.852Z,19.89
2023-02-21T10:38:44.070Z,20.40
2023-02-21T10:41:47.050Z,20.21
2023-02-21T10:44:53.067Z,19.83
2023-02-21T10:48:05.582Z,19.71
2023-02-21T10:51:13.749Z,20.30
2023-02-21T10:54:24.383Z,20.64
2023-02-21T10:57:27.462Z,20.71
2023-02-21T11:00:35.753Z,20.84
2023-02-21T11:03:43.082Z,20.86
2023-02-21T11:06:48.279Z,20.84
2023-02-21T11:09:51.346Z,20.84
2023-02-21T11:13:09.753Z,20.83
2023-02-21T11:16:17.691Z,20.71
2023-02-21T11:19:19.869Z,20.98
2023-02-21T11:22:36.180Z,21.03
2023-02-21T11:25:40.878Z,20.90
2023-02-21T11:28:44.773Z,20.64
2023-02-21T11:31:49.372Z,20.19
2023-02-21T11:34:51.911Z,19.97
2023-02-21T11:37:55.769Z,19.85
2023-02-21T11:40:57.916Z,19.73
2023-02-21T11:43:59.973Z,19.62
2023-02-21T11:47:24.840Z,19.73
2023-02-21T11:50:33.048Z,19.79
2023-02-21T11:53:43.046Z,19.72
2023-02-21T11:57:04.602Z,19.78
2023-02-21T12:00:31.201Z,19.89
2023-02-21T12:03:56.275Z,19.88
2023-02-21T12:07:08.289Z,19.79
2023-02-21T12:10:19.227Z,19.76
2023-02-21T12:13:32.990Z,19.74
2023-02-21T12:16:45.170Z,19.79
2023-02-21T12:19:56.168Z,19.74
2023-02-21T12:23:12.200Z,19.64
2023-02-21T12:26:28.808Z,19.54
2023-02-21T12:29:52.630Z,19.44
2023-02-21T12:33:21.202Z,19.44
2023-02-21T12:36:48.119Z,19.42
2023-02-21T12:40:00.353Z,19.38
2023-02-21T12:43:10.511Z,19.36
2023-02-21T12:46:37.111Z,19.41
2023-02-21T12:49:45.173Z,19.36
2023-02-21T12:52:47.057Z,19.37
2023-02-21T12:56:12.554Z,19.27
2023-02-21T12:59:31.074Z,19.36
2023-02-21T13:03:09.935Z,19.35
2023-02-21T13:06:23.795Z,19.38
2023-02-21T13:09:39.674Z,19.19
2023-02-21T13:13:12.017Z,19.17
2023-02-21T13:16:15.228Z,19.12
2023-02-21T13:19:17.567Z,19.05
2023-02-21T13:23:15.603Z,19.24
2023-02-21T13:26:51.507Z,19.33
2023-02-21T13:30:04.202Z,19.47
2023-02-21T13:33:06.861Z,19.61
2023-02-21T13:36:43.506Z,19.94
2023-02-21T13:39:53.751Z,20.11
2023-02-21T13:43:06.757Z,20.08
2023-02-21T13:46:31.711Z,20.13
2023-02-21T13:49:42.874Z,20.11
2023-02-21T13:53:25.853Z,20.00
2023-02-21T13:56:45.090Z,19.81
2023-02-21T13:59:48.524Z,19.65
2023-02-21T14:03:18.256Z,19.73
2023-02-21T14:06:29.617Z,19.74
2023-02-21T14:09:38.378Z,19.52
2023-02-21T14:12:44.836Z,18.88
2023-02-21T14:15:50.124Z,18.68
2023-02-21T14:18:55.231Z,18.31
2023-02-21T14:22:03.536Z,17.88
2023-02-21T14:25:24.573Z,17.78
2023-02-21T14:28:58.139Z,17.95
2023-02-21T14:32:02.928Z,18.04
2023-02-21T14:35:17.243Z,18.06
2023-02-21T14:38:26.262Z,17.81
2023-02-21T14:41:52.217Z,17.79
2023-02-21T14:45:14.308Z,17.66
2023-02-21T14:48:36.188Z,17.54
2023-02-21T14:52:07.452Z,17.39
2023-02-21T14:55:57.133Z,17.38
2023-02-21T14:59:11.234Z,17.37
2023-02-21T15:02:32.496Z,17.34
2023-02-21T15:05:45.217Z,17.36
2023-02-21T15:08:49.682Z,17.22
2023-02-21T15:11:53.950Z,17.22
2023-02-21T15:14:56.158Z,17.27
2023-02-21T15:18:03.091Z,17.14
2023-02-21T15:21:07.926Z,17.23
2023-02-21T15:24:16.155Z,17.25
2023-02-21T15:27:20.410Z,17.29
2023-02-21T15:30:35.437Z,17.37
2023-02-21T15:33:40.829Z,17.20
2023-02-21T15:36:44.039Z,17.32
2023-02-21T15:39:55.314Z,17.16
2023-02-21T15:42:58.166Z,16.81
2023-02-21T15:46:06.843Z,16.94
2023-02-21T15:49:14.594Z,16.82
2023-02-21T15:52:49.116Z,16.89
2023-02-21T15:55:53.335Z,16.74
2023-02-21T15:59:20.066Z,16.67
2023-02-21T16:02:25.281Z,16.59
2023-02-21T16:05:30.015Z,16.52
2023-02-21T16:08:32.008Z,16.62
2023-02-21T16:11:48.966Z,16.68
2023-02-21T16:15:03.214Z,16.61
2023-02-21T16:18:08.506Z,16.83
2023-02-21T16:21:23.950Z,17.11
2023-02-21T16:24:30.429Z,17.46
2023-02-21T16:27:32.892Z,17.37
2023-02-21T16:30:35.688Z,17.07
2023-02-21T16:33:38.209Z,17.04
2023-02-21T16:36:42.000Z,17.20
2023-02-21T16:39:44.061Z,17.44
2023-02-21T16:42:46.434Z,17.31
2023-02-21T16:45:51.705Z,16.94
2023-02-21T16:48:56.659Z,16.76
2023-02-21T16:51:59.280Z,16.66
2023-02-21T16:55:01.281Z,16.54
2023-02-21T16:58:07.314Z,17.07
2023-02-21T17:01:22.017Z,17.31
2023-02-21T17:04:30.127Z,17.56
2023-02-21T17:07:33.891Z,17.87
2023-02-21T17:10:37.752Z,18.06
2023-02-21T17:13:42.039Z,18.22
2023-02-21T17:16:45.892Z,18.41
2023-02-21T17:19:48.093Z,18.47
2023-02-21T17:22:51.472Z,18.39
2023-02-21T17:25:54.257Z,18.37
2023-02-21T17:28:59.618Z,18.22
2023-02-21T17:32:07.193Z,18.21
2023-02-21T17:35:12.916Z,18.31
2023-02-21T17:38:16.422Z,18.26
2023-02-21T17:41:19.709Z,18.15
2023-02-21T17:44:28.301Z,18.10
2023-02-21T17:47:36.564Z,17.98
2023-02-21T17:50:39.171Z,17.92
2023-02-21T17:53:41.931Z,17.98
2023-02-21T17:56:44.049Z,17.94
2023-02-21T17:59:47.282Z,17.78
2023-02-21T18:02:51.208Z,17.84
2023-02-21T18:05:53.335Z,17.74
2023-02-21T18:08:58.157Z,17.94
2023-02-21T18:12:01.200Z,18.15
2023-02-21T18:15:03.731Z,18.25
2023-02-21T18:18:08.202Z,18.28
2023-02-21T18:21:12.056Z,18.46
2023-02-21T18:24:16.156Z,18.31
2023-02-21T18:27:19.453Z,18.34
2023-02-21T18:30:22.379Z,18.36
2023-02-21T18:33:27.491Z,18.49
2023-02-21T18:36:29.891Z,18.40
2023-02-21T18:39:33.445Z,18.37
2023-02-21T18:42:35.445Z,18.33
2023-02-21T18:45:40.625Z,18.17
2023-02-21T18:48:44.772Z,18.14
2023-02-21T18:51:46.978Z,18.02
2023-02-21T18:54:50.776Z,18.00
2023-02-21T18:57:53.730Z,17.85
2023-02-21T19:00:56.364Z,17.88
2023-02-21T19:03:58.603Z,17.90
2023-02-21T19:07:08.288Z,17.91
2023-02-21T19:10:13.483Z,17.93
2023-02-21T19:13:16.872Z,17.86
2023-02-21T19:16:20.533Z,17.91
2023-02-21T19:19:23.334Z,17.92
2023-02-21T19:22:25.421Z,18.00
2023-02-21T19:25:29.122Z,17.96
2023-02-21T19:28:32.033Z,17.85
2023-02-21T19:31:34.867Z,17.68
2023-02-21T19:34:37.593Z,17.62
2023-02-21T19:37:39.767Z,17.56
2023-02-21T19:40:42.900Z,17.44
2023-02-21T19:43:45.056Z,17.51
2023-02-21T19:46:47.119Z,17.50
2023-02-21T19:49:49.167Z,17.44
2023-02-21T19:52:53.175Z,17.37
2023-02-21T19:55:55.176Z,17.24
2023-02-21T19:58:58.240Z,17.18
2023-02-21T20:02:01.028Z,17.26
2023-02-21T20:05:03.084Z,17.16
2023-02-21T20:08:06.858Z,17.17
2023-02-21T20:11:10.440Z,17.17
2023-02-21T20:14:13.397Z,17.07
2023-02-21T20:17:16.341Z,17.24
2023-02-21T20:20:18.451Z,17.32
2023-02-21T20:23:21.486Z,17.39
2023-02-21T20:26:25.785Z,17.79
2023-02-21T20:29:28.287Z,17.39
2023-02-21T20:32:30.480Z,17.58
2023-02-21T20:35:32.701Z,17.63
2023-02-21T20:38:36.812Z,17.62
2023-02-21T20:41:39.099Z,17.54
2023-02-21T20:44:43.276Z,17.41
2023-02-21T20:47:45.320Z,17.22
2023-02-21T20:50:47.642Z,17.26
2023-02-21T20:53:49.674Z,17.28
2023-02-21T20:56:54.285Z,17.40
2023-02-21T20:59:58.088Z,17.53
2023-02-21T21:03:00.288Z,17.47
2023-02-21T21:06:04.188Z,17.53
2023-02-21T21:09:06.297Z,17.61
2023-02-21T21:12:11.211Z,17.62
2023-02-21T21:15:16.566Z,17.70
2023-02-21T21:18:27.522Z,18.01
2023-02-21T21:21:31.215Z,17.86
2023-02-21T21:24:33.558Z,17.86
2023-02-21T21:27:36.640Z,17.74
2023-02-21T21:34:07.527Z,17.70
2023-02-21T21:37:23.859Z,17.82
2023-02-21T21:40:30.309Z,17.94
2023-02-21T21:43:32.319Z,17.93
2023-02-21T21:46:35.642Z,17.94
2023-02-21T21:49:38.577Z,18.47
2023-02-21T21:52:40.822Z,18.29
2023-02-21T21:55:43.000Z,18.10
2023-02-21T21:58:45.058Z,18.06
2023-02-21T22:01:48.415Z,18.06
2023-02-21T22:04:53.513Z,18.03
2023-02-21T22:07:56.494Z,18.00
2023-02-21T22:11:01.104Z,17.93
2023-02-21T22:14:05.977Z,17.88
2023-02-21T22:17:12.144Z,17.69
2023-02-21T22:20:17.855Z,17.57
2023-02-21T22:23:24.354Z,17.50
2023-02-21T22:26:30.460Z,17.34
2023-02-21T22:29:32.832Z,17.26
2023-02-21T22:32:37.852Z,17.12
2023-02-21T22:35:41.743Z,17.03
2023-02-21T22:38:47.608Z,16.77
2023-02-21T22:41:49.726Z,16.74
2023-02-21T22:44:51.920Z,16.76
2023-02-21T22:47:57.971Z,16.70
2023-02-21T22:50:59.978Z,16.66
2023-02-21T22:54:02.126Z,16.56
2023-02-21T22:57:05.158Z,16.53
2023-02-21T23:00:19.336Z,16.52
2023-02-21T23:03:22.052Z,16.38
2023-02-21T23:06:24.131Z,16.32
2023-02-21T23:09:30.819Z,16.38
2023-02-21T23:12:32.929Z,16.20
2023-02-21T23:15:35.673Z,16.29
2023-02-21T23:18:39.885Z,16.31
2023-02-21T23:21:50.672Z,16.27
2023-02-21T23:24:54.889Z,16.21
2023-02-21T23:28:04.498Z,16.31
2023-02-21T23:31:06.605Z,16.30
2023-02-21T23:34:12.891Z,16.33
2023-02-21T23:37:15.458Z,16.24
2023-02-21T23:40:20.766Z,16.25
2023-02-21T23:43:25.779Z,16.21
2023-02-21T23:46:29.794Z,16.34
2023-02-21T23:49:31.964Z,16.22
2023-02-21T23:52:34.178Z,16.34
2023-02-21T23:55:36.118Z,16.18
2023-02-21T23:58:41.463Z,16.29
